»·PEaware :: N15JG KSNA-KSNA

N15JG :: KSNA-KSNA

FLIGHT INFORMATION

Flight Status: Arrived
Operator: Privately registered:
United States
More flights under this callsign
Pilot: Anonymous 11047 (11047)
Aircraft: CESSNA 172 SKYHAWK
(C172)
More flights by this aircraft type
Origin: KSNA John Wayne-Orange Co
United States
Destination: KSNA John Wayne-Orange Co
United States
More flights between these airports :: More routes between these airports
Route: SLI
File this flight plan on PilotEdge
Remarks: NOT for I-1 - just practice
Altitude:
(Current/Filed)
3,000ft
Speed:
(Current/Filed)
110kts
Departed: 02-Jan-17 02:04 PM
Arrived: 02-Jan-17 02:30 PM
Distance/Time
Traveled:
0nm/0:26
Distance/Time
To Go:
Arrived

Flight Plot

Page will automatically refresh every two minutes.


Map Options




Map Legend


Flown Route
Filed Route
Departure Airport
Arrival Airport
Navaid (VOR, NDB)
Fix

Horizontal Profiles

Position Reports

Time Latitude Longitude Heading Altitude Ground
Speed
02-Jan-17 13:21 33.671027 -117.873920 208 60ft 0kts
02-Jan-17 13:22 33.671027 -117.873920 208 60ft 0kts
02-Jan-17 13:23 33.671027 -117.873920 208 60ft 0kts
02-Jan-17 13:24 33.671025 -117.873922 210 60ft 0kts
02-Jan-17 13:25 33.671025 -117.873922 210 60ft 0kts
02-Jan-17 13:26 33.671025 -117.873922 210 60ft 0kts
02-Jan-17 13:27 33.671025 -117.873922 210 60ft 0kts
02-Jan-17 13:28 33.671025 -117.873922 210 60ft 0kts
02-Jan-17 13:29 33.671025 -117.873922 210 60ft 0kts
02-Jan-17 13:30 33.671025 -117.873922 210 60ft 0kts
02-Jan-17 13:31 33.671025 -117.873922 210 60ft 0kts
02-Jan-17 13:32 33.671025 -117.873922 210 60ft 0kts
02-Jan-17 13:33 33.671025 -117.873922 210 60ft 0kts
02-Jan-17 13:34 33.671025 -117.873922 210 60ft 0kts
02-Jan-17 13:35 33.671025 -117.873922 210 60ft 0kts
02-Jan-17 13:36 33.671025 -117.873922 210 60ft 0kts
02-Jan-17 13:37 33.671025 -117.873922 210 60ft 0kts
02-Jan-17 13:38 33.671025 -117.873922 210 60ft 0kts
02-Jan-17 13:39 33.671025 -117.873922 210 60ft 0kts
02-Jan-17 13:40 33.671025 -117.873922 210 60ft 0kts
02-Jan-17 13:41 33.671025 -117.873922 210 60ft 0kts
02-Jan-17 13:42 33.671025 -117.873922 210 60ft 0kts
02-Jan-17 13:43 33.671025 -117.873922 210 60ft 0kts
02-Jan-17 13:44 33.671025 -117.873922 210 60ft 0kts
02-Jan-17 13:45 33.671025 -117.873922 210 60ft 0kts
02-Jan-17 13:46 33.671025 -117.873922 210 60ft 0kts
02-Jan-17 13:47 33.671025 -117.873922 210 60ft 0kts
02-Jan-17 13:48 33.673167 -117.871902 24 60ft 15kts
02-Jan-17 13:49 33.676576 -117.869771 25 60ft 14kts
02-Jan-17 13:50 33.679852 -117.867856 24 60ft 13kts
02-Jan-17 13:51 33.681243 -117.866476 117 60ft 0kts
02-Jan-17 13:52 33.681243 -117.866476 117 60ft 0kts
02-Jan-17 13:53 33.681243 -117.866476 117 60ft 0kts
02-Jan-17 13:54 33.681243 -117.866476 117 60ft 0kts
02-Jan-17 13:55 33.681243 -117.866476 117 60ft 0kts
02-Jan-17 13:56 33.681243 -117.866476 117 60ft 0kts
02-Jan-17 13:57 33.681243 -117.866476 117 60ft 0kts
02-Jan-17 13:58 33.681243 -117.866476 117 60ft 0kts
02-Jan-17 13:59 33.681243 -117.866476 117 60ft 0kts
02-Jan-17 14:00 33.681243 -117.866476 117 60ft 0kts
02-Jan-17 14:01 33.681243 -117.866476 117 60ft 0kts
02-Jan-17 14:02 33.681243 -117.866476 117 60ft 0kts
02-Jan-17 14:03 33.681050 -117.866072 121 60ft 9kts
02-Jan-17 14:04 33.671898 -117.871225 209 245ft 78kts
02-Jan-17 14:05 33.656602 -117.887022 233 957ft 89kts
02-Jan-17 14:06 33.641796 -117.908847 230 1757ft 85kts
02-Jan-17 14:07 33.628082 -117.932084 265 2425ft 95kts
02-Jan-17 14:08 33.646700 -117.948621 340 3007ft 105kts
02-Jan-17 14:09 33.675651 -117.948359 13 3032ft 117kts
02-Jan-17 14:10 33.703416 -117.940307 13 2962ft 118kts
02-Jan-17 14:11 33.728969 -117.932669 11 3068ft 109kts
02-Jan-17 14:12 33.754719 -117.925726 13 3007ft 117kts
02-Jan-17 14:13 33.780800 -117.914820 23 2943ft 114kts
02-Jan-17 14:14 33.804866 -117.902466 20 3033ft 113kts
02-Jan-17 14:15 33.829822 -117.889381 21 2985ft 117kts
02-Jan-17 14:16 33.852595 -117.870905 51 3048ft 118kts
02-Jan-17 14:17 33.871352 -117.839453 61 3000ft 118kts
02-Jan-17 14:18 33.875506 -117.800218 97 2979ft 120kts
02-Jan-17 14:19 33.863093 -117.763874 109 3029ft 120kts
02-Jan-17 14:20 33.848078 -117.728798 143 2990ft 122kts
02-Jan-17 14:21 33.821562 -117.733760 239 2931ft 121kts
02-Jan-17 14:22 33.803913 -117.759852 232 2998ft 115kts
02-Jan-17 14:23 33.787223 -117.783563 232 3057ft 115kts
02-Jan-17 14:24 33.771796 -117.808378 232 2929ft 119kts
02-Jan-17 14:25 33.747799 -117.824379 213 2207ft 121kts
02-Jan-17 14:26 33.725549 -117.838061 208 1501ft 111kts
02-Jan-17 14:27 33.706186 -117.849676 212 738ft 87kts
02-Jan-17 14:28 33.691012 -117.859224 211 246ft 69kts
02-Jan-17 14:29 33.678667 -117.866948 212 60ft 48kts
02-Jan-17 14:30 33.678090 -117.868286 300 60ft 0kts
02-Jan-17 14:31 33.676517 -117.869846 203 60ft 19kts
02-Jan-17 14:32 33.676145 -117.870883 126 60ft 0kts

Navigation Log

Ident Type
1. KSNA Airport
2. SLI Navaid
3. KSNA Airport